Time;durP1;ratioP1;P1;durP2;ratioP2;P2;SDS_P1;SDS_P2;PMS_P1;PMS_P2;Temp;Humidity;BMP_temperature;BMP_pressure;BME280_temperature;BME280_humidity;BME280_pressure;Samples;Min_cycle;Max_cycle;Signal;HPM_P1;HPM_P2
2022/05/28 00:00:26;;;;;;;;;7.50;5.00;;;;;17.09;50.93;101769.53;5016446;28;45604;-54
2022/05/28 00:02:52;;;;;;;;;8.00;8.00;;;;;17.07;50.69;101767.84;5015890;28;45351;-52
2022/05/28 00:05:17;;;;;;;;;6.75;5.00;;;;;17.04;51.05;101770.22;5016037;28;45539;-51
2022/05/28 00:07:43;;;;;;;;;6.25;6.25;;;;;17.13;50.81;101770.78;5016284;28;45287;-52
2022/05/28 00:10:10;;;;;;;;;8.50;8.50;;;;;16.88;51.23;101728.16;5031522;28;45505;-53
2022/05/28 00:12:35;;;;;;;;;7.20;6.80;;;;;17.13;51.54;101768.00;5015629;28;46272;-54
2022/05/28 00:15:01;;;;;;;;;9.00;6.75;;;;;17.14;51.25;101764.13;5015823;28;45726;-54
2022/05/28 00:17:26;;;;;;;;;7.00;6.00;;;;;17.15;51.32;101763.91;5015838;28;45469;-51
2022/05/28 00:19:52;;;;;;;;;9.00;6.75;;;;;17.13;51.14;101759.69;5014916;28;45628;-49
2022/05/28 00:22:18;;;;;;;;;7.25;5.75;;;;;17.07;50.97;101761.44;5015530;28;46476;-52
2022/05/28 00:24:43;;;;;;;;;7.25;6.25;;;;;17.00;51.47;101755.09;5015845;28;45322;-50
2022/05/28 00:27:09;;;;;;;;;5.25;5.00;;;;;17.08;51.09;101757.59;5015590;28;45460;-54
2022/05/28 00:29:34;;;;;;;;;7.75;7.75;;;;;16.94;51.16;101749.41;5016118;28;45416;-53
2022/05/28 00:31:59;;;;;;;;;8.75;7.50;;;;;16.98;51.09;101758.09;5014434;28;45433;-52
2022/05/28 00:34:25;;;;;;;;;8.50;8.25;;;;;16.98;50.84;101746.16;5015524;28;45396;-51
2022/05/28 00:36:51;;;;;;;;;5.40;5.40;;;;;16.97;50.93;101747.25;5015616;28;45374;-53
2022/05/28 00:39:17;;;;;;;;;6.75;6.75;;;;;16.81;51.38;101746.75;5015620;28;45641;-53
2022/05/28 00:41:42;;;;;;;;;5.00;5.00;;;;;16.79;51.32;101741.47;5015528;28;46073;-54
2022/05/28 00:44:09;;;;;;;;;7.00;7.00;;;;;16.86;51.12;101741.38;5014448;28;45369;-50
2022/05/28 00:46:35;;;;;;;;;9.00;7.80;;;;;16.70;51.24;101715.09;5014168;28;45361;-50
2022/05/28 00:49:03;;;;;;;;;6.00;6.00;;;;;16.88;50.95;101746.69;5015874;28;45345;-51
2022/05/28 00:51:32;;;;;;;;;8.00;8.00;;;;;16.87;51.00;101734.75;5015277;28;45428;-51
2022/05/28 00:54:01;;;;;;;;;6.80;6.80;;;;;16.92;50.96;101743.22;4998176;28;45390;-51
2022/05/28 00:56:27;;;;;;;;;6.20;5.20;;;;;16.89;50.71;101742.84;5014243;28;45393;-52
2022/05/28 00:58:53;;;;;;;;;6.60;6.60;;;;;16.69;50.97;101707.03;5015714;28;45643;-55
2022/05/28 01:01:20;;;;;;;;;8.75;8.75;;;;;16.88;51.13;101741.16;5014199;28;46398;-54
2022/05/28 01:04:21;;;;;;;;;6.00;5.00;;;;;16.82;51.26;101739.28;5014000;28;45398;-54
2022/05/28 01:07:05;;;;;;;;;9.00;8.20;;;;;16.80;51.14;101733.97;5014036;28;45382;-52
2022/05/28 01:09:53;;;;;;;;;7.40;7.40;;;;;16.78;51.36;101733.38;5015143;28;45401;-51
2022/05/28 01:12:50;;;;;;;;;6.80;6.00;;;;;16.80;51.22;101733.97;5015517;28;46827;-55
2022/05/28 01:15:22;;;;;;;;;6.40;4.80;;;;;16.80;51.16;101733.97;5014123;28;46016;-49
2022/05/28 01:17:54;;;;;;;;;6.00;4.80;;;;;16.76;51.45;101729.97;5013986;28;45388;-53
2022/05/28 01:20:26;;;;;;;;;6.00;6.00;;;;;16.69;51.55;101724.50;4998410;28;45232;-49
2022/05/28 01:23:12;;;;;;;;;6.80;6.60;;;;;16.33;51.76;101677.09;4997540;28;45720;-48
2022/05/28 01:25:59;;;;;;;;;8.20;7.00;;;;;16.71;51.69;101725.09;5014289;28;45326;-51
2022/05/28 01:28:30;;;;;;;;;7.00;7.00;;;;;16.61;51.76;101708.16;5003274;28;45427;-53
2022/05/28 01:30:55;;;;;;;;;8.00;8.00;;;;;16.55;51.76;101692.47;5032223;28;45372;-53
2022/05/28 01:33:21;;;;;;;;;6.00;6.00;;;;;16.73;51.66;101722.97;5035125;28;45343;-48
2022/05/28 01:35:46;;;;;;;;;6.75;6.00;;;;;16.75;51.55;101719.97;5033621;28;45355;-54
2022/05/28 01:38:12;;;;;;;;;4.00;2.50;;;;;16.72;51.98;101721.28;5035016;28;45191;-54
2022/05/28 01:40:38;;;;;;;;;9.25;6.75;;;;;16.63;51.96;101712.41;5034108;28;45492;-53
2022/05/28 01:43:05;;;;;;;;;6.25;6.25;;;;;16.62;52.08;101720.94;5017032;28;46851;-50
2022/05/28 01:45:31;;;;;;;;;10.80;8.80;;;;;16.58;52.37;101716.94;5034941;28;45494;-53
2022/05/28 01:48:00;;;;;;;;;6.00;6.00;;;;;16.50;52.35;101712.53;5034481;28;45502;-49
2022/05/28 01:50:25;;;;;;;;;5.80;5.60;;;;;16.58;52.06;101717.78;5017475;28;45657;-54
2022/05/28 01:52:51;;;;;;;;;10.00;7.50;;;;;16.51;52.46;101705.91;5033394;28;46429;-52
2022/05/28 01:55:17;;;;;;;;;7.50;7.00;;;;;16.56;52.45;101711.63;5016883;28;45775;-53
2022/05/28 01:57:42;;;;;;;;;5.75;5.75;;;;;16.55;52.54;101706.31;5035326;28;45420;-51
2022/05/28 02:00:09;;;;;;;;;5.75;5.50;;;;;16.44;52.19;101685.75;5020227;28;45777;-52
2022/05/28 02:02:35;;;;;;;;;7.80;5.60;;;;;16.48;52.42;101696.16;5037693;28;45472;-54
2022/05/28 02:05:02;;;;;;;;;7.25;7.00;;;;;16.49;52.34;101700.59;5016439;28;45597;-53
2022/05/28 02:07:27;;;;;;;;;7.00;5.60;;;;;16.50;52.34;101698.69;4997972;28;45453;-51
2022/05/28 02:09:55;;;;;;;;;6.25;6.25;;;;;16.28;52.59;101662.25;4997139;28;45433;-51
2022/05/28 02:12:37;;;;;;;;;11.60;10.60;;;;;16.31;52.51;101673.72;4980311;28;46592;-54
2022/05/28 02:15:08;;;;;;;;;9.60;8.00;;;;;16.50;52.42;101701.47;4998127;28;45406;-51
2022/05/28 02:17:45;;;;;;;;;7.20;6.80;;;;;16.46;52.55;101695.53;4998142;28;45360;-50
2022/05/28 02:20:39;;;;;;;;;9.60;6.60;;;;;16.45;52.81;101695.75;4998078;28;45319;-52
2022/05/28 02:23:04;;;;;;;;;9.80;8.00;;;;;16.45;52.44;101696.63;4997544;28;45479;-52
2022/05/28 02:25:35;;;;;;;;;7.00;7.00;;;;;16.45;52.62;101688.31;4997859;28;45329;-52
2022/05/28 02:28:02;;;;;;;;;9.40;6.80;;;;;16.43;52.95;101689.59;4997559;28;45378;-55
2022/05/28 02:30:27;;;;;;;;;11.00;7.00;;;;;16.39;52.98;101692.81;4996514;28;45425;-53
2022/05/28 02:33:05;;;;;;;;;7.00;7.00;;;;;16.31;52.90;101686.72;4997606;28;46417;-53
2022/05/28 02:35:30;;;;;;;;;11.60;9.80;;;;;15.90;53.15;101619.75;5012647;28;45411;-53
2022/05/28 02:37:56;;;;;;;;;8.25;7.00;;;;;15.77;53.33;101624.31;4996595;28;45413;-51
2022/05/28 02:40:22;;;;;;;;;5.50;4.00;;;;;15.94;53.19;101635.72;4997935;28;45551;-51
2022/05/28 02:42:47;;;;;;;;;9.60;6.80;;;;;16.20;53.33;101680.00;4995936;28;46391;-51
2022/05/28 02:45:13;;;;;;;;;8.75;7.00;;;;;16.23;53.40;101680.38;4997454;28;45424;-51
2022/05/28 02:47:38;;;;;;;;;5.00;5.00;;;;;16.25;53.39;101674.63;4997645;28;45497;-54
2022/05/28 02:50:04;;;;;;;;;9.75;7.50;;;;;16.11;53.27;101652.59;4997879;28;45582;-55
2022/05/28 02:52:30;;;;;;;;;8.00;6.40;;;;;16.12;53.41;101654.28;4995651;28;46025;-55
2022/05/28 02:54:55;;;;;;;;;9.25;7.50;;;;;16.19;53.47;101673.63;4996273;28;45425;-52
2022/05/28 02:57:21;;;;;;;;;7.50;5.75;;;;;16.17;53.73;101663.84;4997454;28;45468;-51
2022/05/28 02:59:46;;;;;;;;;12.25;9.25;;;;;16.12;53.44;101670.91;4996096;28;45500;-52
2022/05/28 03:02:12;;;;;;;;;5.75;5.00;;;;;16.13;53.80;101674.53;4997430;28;46340;-55
2022/05/28 03:04:38;;;;;;;;;9.25;7.50;;;;;16.15;54.09;101669.59;5009957;28;45412;-54
2022/05/28 03:07:04;;;;;;;;;6.25;6.25;;;;;16.18;53.76;101668.31;5032854;28;45257;-53
2022/05/28 03:09:30;;;;;;;;;6.60;6.60;;;;;16.18;54.24;101662.78;5016367;28;45272;-55
2022/05/28 03:11:55;;;;;;;;;9.00;8.00;;;;;16.16;54.50;101674.06;5032354;28;46638;-52
2022/05/28 03:14:21;;;;;;;;;8.25;7.75;;;;;16.15;54.31;101672.38;5017127;28;45423;-51
2022/05/28 03:16:46;;;;;;;;;8.00;6.50;;;;;16.09;54.24;101663.06;5017157;28;45309;-54
2022/05/28 03:19:12;;;;;;;;;11.75;7.50;;;;;15.94;54.42;101651.47;5016037;28;45458;-55
2022/05/28 03:21:37;;;;;;;;;8.75;7.00;;;;;16.09;54.80;101668.59;5017008;28;46018;-48
2022/05/28 03:24:03;;;;;;;;;7.00;7.00;;;;;16.00;54.87;101669.94;5016984;28;45389;-54
2022/05/28 03:26:29;;;;;;;;;9.50;6.50;;;;;16.02;55.01;101666.94;5017172;28;45323;-54
2022/05/28 03:28:56;;;;;;;;;10.80;7.80;;;;;16.02;55.18;101665.03;5017035;28;45374;-54
2022/05/28 03:31:22;;;;;;;;;9.20;7.40;;;;;16.02;55.02;101667.81;5032383;28;47496;-51
2022/05/28 03:33:48;;;;;;;;;10.00;8.00;;;;;16.01;55.04;101671.63;5016788;28;45278;-53
2022/05/28 03:36:13;;;;;;;;;9.75;7.00;;;;;15.77;55.14;101634.53;5032333;28;45370;-52
2022/05/28 03:38:39;;;;;;;;;6.75;6.75;;;;;15.94;54.85;101670.84;5015806;28;45239;-51
2022/05/28 03:41:04;;;;;;;;;9.00;7.50;;;;;15.94;55.40;101670.84;5016599;28;45960;-54
2022/05/28 03:43:30;;;;;;;;;6.00;6.00;;;;;15.88;55.21;101678.09;5016913;28;45215;-53
2022/05/28 03:45:55;;;;;;;;;9.75;9.00;;;;;15.86;55.43;101669.19;5016857;28;45139;-50
2022/05/28 03:48:21;;;;;;;;;7.50;6.75;;;;;15.57;55.54;101632.78;5017245;28;45207;-51
2022/05/28 03:50:47;;;;;;;;;8.00;7.00;;;;;15.79;55.55;101677.53;5016481;28;46458;-52
2022/05/28 03:53:12;;;;;;;;;9.00;8.00;;;;;15.80;55.53;101681.16;5016440;28;45378;-53
2022/05/28 03:55:38;;;;;;;;;8.75;6.75;;;;;15.79;55.52;101683.06;5016806;28;45481;-52
2022/05/28 03:58:04;;;;;;;;;12.25;9.50;;;;;15.80;56.00;101681.16;5015476;28;45574;-54
2022/05/28 04:00:30;;;;;;;;;8.00;7.00;;;;;15.74;55.52;101685.66;5016094;28;45651;-51
2022/05/28 04:02:56;;;;;;;;;7.80;7.00;;;;;15.75;56.27;101694.81;5015858;28;45474;-51
2022/05/28 04:05:22;;;;;;;;;8.60;6.20;;;;;15.68;55.69;101690.16;5016197;28;45482;-54
2022/05/28 04:07:48;;;;;;;;;8.00;7.75;;;;;15.64;56.01;101693.63;5016419;28;45531;-56
2022/05/28 04:10:13;;;;;;;;;8.50;8.00;;;;;15.57;56.29;101688.09;5015885;28;45757;-55
2022/05/28 04:12:39;;;;;;;;;10.75;8.50;;;;;15.56;56.69;101692.81;5016254;28;45360;-50
2022/05/28 04:15:05;;;;;;;;;10.25;10.25;;;;;15.61;56.38;101694.91;5015660;28;45255;-50
2022/05/28 04:17:31;;;;;;;;;6.60;6.60;;;;;15.61;56.38;101694.03;5031424;28;45372;-51
2022/05/28 04:19:56;;;;;;;;;8.50;7.75;;;;;15.62;56.25;101698.53;5015483;28;45709;-52
2022/05/28 04:22:22;;;;;;;;;8.25;6.25;;;;;15.60;56.34;101693.22;5016130;28;45430;-51
2022/05/28 04:24:47;;;;;;;;;7.75;7.75;;;;;15.54;56.03;101694.09;5015739;28;45484;-53
2022/05/28 04:27:13;;;;;;;;;8.00;6.25;;;;;15.61;56.27;101702.34;5016101;28;45608;-51
2022/05/28 04:29:39;;;;;;;;;9.00;7.50;;;;;15.40;56.48;101665.66;5015723;28;46524;-51
2022/05/28 04:32:05;;;;;;;;;10.00;7.50;;;;;15.45;56.92;101707.34;5015598;28;45954;-52
2022/05/28 04:34:30;;;;;;;;;6.40;6.40;;;;;14.83;56.60;101614.69;5008083;28;45517;-50
2022/05/28 04:36:56;;;;;;;;;9.50;8.50;;;;;15.43;56.94;101706.72;5002146;28;45504;-52
2022/05/28 04:39:21;;;;;;;;;7.50;5.75;;;;;14.91;56.54;101613.59;5022664;28;45345;-49
2022/05/28 04:41:47;;;;;;;;;10.25;9.50;;;;;15.55;56.87;101716.03;5024408;28;45248;-51
2022/05/28 04:44:12;;;;;;;;;12.50;11.00;;;;;15.47;56.80;101716.25;5029104;28;45405;-52
2022/05/28 04:46:38;;;;;;;;;10.00;8.75;;;;;15.34;57.43;101719.09;5034619;28;45264;-55
2022/05/28 04:49:04;;;;;;;;;8.00;8.00;;;;;15.18;57.41;101696.41;5035123;28;47048;-52
2022/05/28 04:51:30;;;;;;;;;10.00;8.00;;;;;15.42;56.71;101716.09;5035265;28;45274;-54
2022/05/28 04:53:56;;;;;;;;;8.00;7.00;;;;;15.50;57.09;101726.03;5035364;28;45350;-53
2022/05/28 04:56:21;;;;;;;;;8.50;6.50;;;;;15.44;56.64;101709.25;5035400;28;45421;-52
2022/05/28 04:58:47;;;;;;;;;8.75;6.25;;;;;15.47;56.62;101710.72;5035105;28;45760;-55
2022/05/28 05:01:16;;;;;;;;;9.75;7.00;;;;;15.55;56.35;101720.69;5034885;28;45420;-51
2022/05/28 05:03:42;;;;;;;;;7.00;6.00;;;;;15.54;55.90;101716.22;5031496;28;45385;-51
2022/05/28 05:06:07;;;;;;;;;11.75;8.75;;;;;15.59;56.76;101716.41;5014406;28;45280;-54
2022/05/28 05:08:33;;;;;;;;;11.25;7.50;;;;;15.62;56.14;101721.50;4981251;28;48555;-52
2022/05/28 05:10:58;;;;;;;;;8.75;8.75;;;;;15.62;56.49;101721.50;5015768;28;45377;-50
2022/05/28 05:13:24;;;;;;;;;7.00;7.00;;;;;15.61;56.07;101724.47;5015344;28;45381;-52
2022/05/28 05:15:49;;;;;;;;;9.75;8.00;;;;;15.62;56.60;101728.97;5014519;28;45591;-48
2022/05/28 05:18:15;;;;;;;;;9.00;8.25;;;;;15.58;56.49;101718.31;5015344;28;46387;-50
2022/05/28 05:20:40;;;;;;;;;11.25;8.00;;;;;15.57;57.09;101724.06;5030442;28;45358;-54
2022/05/28 05:23:06;;;;;;;;;10.25;6.50;;;;;15.56;56.82;101719.63;5030912;28;45433;-49
2022/05/28 05:25:32;;;;;;;;;10.25;7.50;;;;;15.59;56.95;101714.50;5015256;28;45603;-52
2022/05/28 05:27:57;;;;;;;;;7.75;6.00;;;;;15.68;56.65;101716.97;5014190;28;46844;-52
2022/05/28 05:30:23;;;;;;;;;8.25;8.25;;;;;15.70;56.39;101724.00;5014743;28;45368;-55
2022/05/28 05:32:48;;;;;;;;;13.75;9.50;;;;;15.70;56.53;101721.22;5017159;28;45374;-53
2022/05/28 05:35:14;;;;;;;;;9.00;8.25;;;;;15.71;56.44;101717.38;5034068;28;45701;-53
2022/05/28 05:37:40;;;;;;;;;6.25;6.25;;;;;15.73;56.19;101711.63;4999373;28;46160;-48
2022/05/28 05:40:07;;;;;;;;;8.25;8.25;;;;;15.53;56.55;101701.53;5016129;28;45425;-48
2022/05/28 05:42:32;;;;;;;;;9.60;7.00;;;;;15.39;56.79;101680.56;5017152;28;45255;-50
2022/05/28 05:44:58;;;;;;;;;14.25;9.00;;;;;15.61;56.14;101705.97;5018902;28;45369;-54
2022/05/28 05:47:23;;;;;;;;;9.50;7.75;;;;;15.70;56.19;101710.16;5018241;28;46309;-51
2022/05/28 05:49:50;;;;;;;;;6.50;6.50;;;;;15.70;56.46;101709.31;5018486;28;45227;-51
2022/05/28 05:52:15;;;;;;;;;13.20;11.20;;;;;15.75;56.36;101717.81;5018670;28;45225;-50
2022/05/28 05:54:41;;;;;;;;;3.00;3.00;;;;;15.48;56.17;101667.31;5018617;28;45199;-52
2022/05/28 05:57:06;;;;;;;;;9.50;9.00;;;;;15.48;56.36;101676.44;5018827;28;46588;-50
2022/05/28 05:59:32;;;;;;;;;14.00;9.75;;;;;15.70;56.04;101714.88;5018286;28;45394;-51
2022/05/28 06:01:58;;;;;;;;;15.75;12.50;;;;;15.74;56.31;101709.72;5017569;28;45500;-52
2022/05/28 06:04:23;;;;;;;;;11.75;10.50;;;;;15.63;56.43;101703.81;5016135;28;45639;-51
2022/05/28 06:06:48;;;;;;;;;12.25;9.00;;;;;15.80;56.15;101717.13;5016931;28;45390;-55
2022/05/28 06:09:14;;;;;;;;;8.50;7.75;;;;;15.59;56.47;101678.50;5017158;28;45373;-56
2022/05/28 06:11:40;;;;;;;;;13.75;8.75;;;;;15.84;55.67;101713.69;5017341;28;45326;-55
2022/05/28 06:14:05;;;;;;;;;12.00;10.00;;;;;15.86;56.09;101719.00;5017004;28;45849;-51
2022/05/28 06:16:31;;;;;;;;;10.25;9.50;;;;;15.86;56.06;101730.91;5016660;28;46466;-51
2022/05/28 06:18:56;;;;;;;;;11.25;10.00;;;;;15.58;55.62;101665.75;5015675;28;45442;-54
2022/05/28 06:21:22;;;;;;;;;8.50;8.25;;;;;15.92;55.60;101720.06;5017135;28;45317;-53
2022/05/28 06:23:47;;;;;;;;;11.25;9.75;;;;;15.93;55.70;101718.97;5017243;28;45198;-52
2022/05/28 06:26:13;;;;;;;;;11.25;10.25;;;;;15.83;56.13;101722.22;5016570;28;46236;-53
2022/05/28 06:28:38;;;;;;;;;11.75;9.00;;;;;15.85;55.50;101722.84;5016744;28;45564;-55
2022/05/28 06:31:06;;;;;;;;;14.00;10.00;;;;;15.68;55.65;101687.41;5016661;28;45571;-56
2022/05/28 06:33:32;;;;;;;;;9.60;7.20;;;;;15.89;55.50;101712.19;5017150;28;45314;-54
2022/05/28 06:35:59;;;;;;;;;9.00;6.80;;;;;15.93;55.53;101716.22;5016209;28;45427;-53
2022/05/28 06:38:24;;;;;;;;;14.40;9.80;;;;;15.95;55.60;101727.94;5015211;28;45311;-53
2022/05/28 06:40:50;;;;;;;;;10.25;9.25;;;;;15.94;55.69;101724.31;5016380;28;45286;-53
2022/05/28 06:43:16;;;;;;;;;10.80;10.20;;;;;15.96;55.63;101721.31;5017128;28;45321;-53
2022/05/28 06:45:41;;;;;;;;;7.75;7.75;;;;;15.74;55.45;101682.06;5016338;28;46323;-52
2022/05/28 06:48:07;;;;;;;;;9.25;8.00;;;;;16.02;55.31;101717.66;5015333;28;45262;-53
2022/05/28 06:53:17;;;;;;;;;14.60;12.00;;;;;15.41;55.49;101620.31;5016716;28;45319;-54
2022/05/28 06:55:42;;;;;;;;;9.50;7.50;;;;;15.90;56.17;101724.94;5015125;28;45750;-55
2022/05/28 06:58:08;;;;;;;;;11.75;10.75;;;;;16.00;55.66;101714.25;5016125;28;45310;-54
2022/05/28 07:02:53;;;;;;;;;12.60;10.00;;;;;15.62;55.88;101662.56;5068973;28;45464;-54
2022/05/28 07:05:18;;;;;;;;;8.25;8.25;;;;;15.73;55.93;101678.44;5050879;28;45457;-51
2022/05/28 07:07:44;;;;;;;;;11.00;8.75;;;;;15.95;55.80;101690.00;5051239;28;45385;-51
2022/05/28 07:10:10;;;;;;;;;12.50;10.00;;;;;16.19;56.03;101719.84;5052254;28;45462;-53
2022/05/28 07:12:35;;;;;;;;;16.00;11.50;;;;;16.11;56.44;101709.88;5052244;28;46320;-49
2022/05/28 07:15:01;;;;;;;;;11.50;11.00;;;;;16.06;56.80;101713.34;5050889;28;46041;-52
2022/05/28 07:17:26;;;;;;;;;9.00;9.00;;;;;16.09;56.49;101717.59;5052238;28;45351;-51
2022/05/28 07:19:52;;;;;;;;;13.00;10.50;;;;;16.19;56.36;101711.53;5052470;28;45351;-49
2022/05/28 07:22:17;;;;;;;;;15.75;14.25;;;;;15.85;56.56;101657.25;5051439;28;45924;-50
2022/05/28 07:24:43;;;;;;;;;13.50;10.00;;;;;16.25;56.30;101697.66;5067670;28;45405;-53
2022/05/28 07:27:11;;;;;;;;;13.75;9.00;;;;;16.31;56.18;101706.09;5052129;28;45303;-52
2022/05/28 07:29:36;;;;;;;;;9.80;9.00;;;;;15.68;55.96;101603.53;5050975;28;45476;-51
2022/05/28 07:32:02;;;;;;;;;10.25;9.25;;;;;16.10;55.90;101667.53;5067244;28;46148;-52
2022/05/28 07:34:28;;;;;;;;;10.75;10.75;;;;;16.01;55.60;101652.25;5051848;28;45437;-52
2022/05/28 07:36:53;;;;;;;;;17.75;12.25;;;;;16.30;55.93;101694.19;5046235;28;45374;-52
2022/05/28 07:39:19;;;;;;;;;16.25;11.75;;;;;16.28;55.89;101685.28;5047744;28;45631;-54
2022/05/28 07:41:44;;;;;;;;;13.50;11.00;;;;;16.39;55.59;101694.75;5050884;28;46102;-53
2022/05/28 07:44:10;;;;;;;;;13.50;10.25;;;;;16.53;55.59;101690.78;5050017;28;45468;-54
2022/05/28 07:46:35;;;;;;;;;15.50;13.25;;;;;16.69;54.99;101687.63;5036054;27;45772;-50
2022/05/28 07:49:01;;;;;;;;;10.50;9.50;;;;;16.66;55.08;101684.22;5050694;28;45920;-50
2022/05/28 07:51:27;;;;;;;;;10.60;9.20;;;;;16.58;54.62;101669.81;5065781;28;46202;-50
2022/05/28 07:53:52;;;;;;;;;15.50;10.25;;;;;16.64;55.07;101688.28;5056765;27;45396;-51
2022/05/28 07:56:18;;;;;;;;;13.75;13.75;;;;;16.74;54.91;101690.53;5050312;28;45376;-53
2022/05/28 07:58:44;;;;;;;;;12.75;12.00;;;;;16.52;54.47;101641.97;4857609;27;45578;-52
2022/05/28 08:01:21;;;;;;;;;15.00;13.50;;;;;16.79;54.90;101686.00;4962132;28;45466;-54
2022/05/28 08:03:47;;;;;;;;;14.20;11.40;;;;;16.90;54.57;101677.97;5033131;28;45425;-52
2022/05/28 08:06:12;;;;;;;;;17.25;12.50;;;;;16.90;54.36;101662.22;5031237;28;45384;-50
2022/05/28 08:08:38;;;;;;;;;13.50;10.75;;;;;17.02;54.22;101667.00;5030486;28;45303;-49
2022/05/28 08:11:04;;;;;;;;;12.25;10.50;;;;;17.20;53.98;101675.28;5031442;28;46416;-53
2022/05/28 08:13:29;;;;;;;;;13.75;11.25;;;;;17.32;53.37;101680.03;5022302;28;45416;-50
2022/05/28 08:15:55;;;;;;;;;15.75;14.50;;;;;17.32;53.28;101678.13;5018496;28;45329;-51
2022/05/28 08:18:23;;;;;;;;;13.50;10.25;;;;;17.26;52.99;101661.56;5017934;28;45497;-48
2022/05/28 08:23:33;;;;;;;;;13.60;9.40;;;;;17.36;52.79;101681.28;5017845;28;45318;-51
2022/05/28 08:25:59;;;;;;;;;16.00;11.75;;;;;17.36;53.41;101667.41;5018285;28;45363;-50
2022/05/28 08:28:24;;;;;;;;;10.75;10.75;;;;;17.25;52.67;101662.66;5017909;28;45645;-52
2022/05/28 08:30:50;;;;;;;;;12.50;11.50;;;;;17.34;52.85;101684.28;5015253;28;45917;-55
2022/05/28 08:33:16;;;;;;;;;18.25;11.75;;;;;17.36;52.15;101683.19;5004587;28;45296;-52
2022/05/28 08:35:42;;;;;;;;;42.60;37.20;;;;;17.37;52.44;101682.09;5016595;28;45276;-49
2022/05/28 08:38:10;;;;;;;;;15.00;11.50;;;;;17.41;52.21;101670.31;5033509;28;45679;-52
2022/05/28 08:41:00;;;;;;;;;11.00;9.40;;;;;17.46;51.82;101678.78;5033124;28;45569;-48
2022/05/28 08:43:36;;;;;;;;;17.20;11.00;;;;;17.34;51.72;101666.78;5038041;28;45215;-52
2022/05/28 08:46:02;;;;;;;;;10.80;10.80;;;;;17.42;52.33;101651.72;5013065;28;45476;-54
2022/05/28 08:48:48;;;;;;;;;13.60;11.00;;;;;17.72;51.38;101667.53;5002304;28;45519;-54
2022/05/28 08:51:46;;;;;;;;;13.40;10.80;;;;;17.78;51.39;101652.69;5017458;28;46097;-51
2022/05/28 08:54:26;;;;;;;;;11.20;8.60;;;;;18.00;51.12;101669.59;4994170;28;45363;-55
2022/05/28 08:56:54;;;;;;;;;9.40;9.40;;;;;17.86;50.63;101618.16;5015925;28;45450;-53
2022/05/28 08:59:23;;;;;;;;;12.80;11.00;;;;;18.21;50.33;101664.59;5031781;28;45455;-52
2022/05/28 09:01:48;;;;;;;;;11.40;11.40;;;;;18.34;50.04;101659.88;5015428;28;46260;-47
2022/05/28 09:04:20;;;;;;;;;9.25;8.00;;;;;18.21;49.82;101630.41;5015830;28;45312;-50
2022/05/28 09:06:49;;;;;;;;;10.60;9.40;;;;;18.40;49.44;101654.19;5031991;28;45451;-52
2022/05/28 09:09:15;;;;;;;;;13.60;8.80;;;;;18.44;49.40;101651.78;5017673;28;45299;-52
2022/05/28 09:11:56;;;;;;;;;13.75;12.00;;;;;18.41;49.29;101655.88;5015594;28;46227;-55
2022/05/28 09:14:24;;;;;;;;;8.80;8.80;;;;;18.29;48.86;101619.78;5031080;28;45284;-54
2022/05/28 09:16:54;;;;;;;;;10.00;8.20;;;;;18.45;48.60;101645.13;5009633;28;45858;-50
2022/05/28 09:19:45;;;;;;;;;12.40;11.20;;;;;18.38;48.13;101655.53;5014078;28;45534;-48
2022/05/28 09:22:10;;;;;;;;;9.60;8.80;;;;;18.30;48.14;101642.84;5008410;28;45474;-54
2022/05/28 09:24:39;;;;;;;;;10.00;10.00;;;;;18.05;48.41;101584.72;5029929;28;45368;-53
2022/05/28 09:27:21;;;;;;;;;9.60;9.00;;;;;18.54;48.57;101640.91;5031885;28;45404;-52
2022/05/28 09:30:08;;;;;;;;;12.20;10.20;;;;;18.78;48.77;101640.00;5015271;28;45515;-51
2022/05/28 09:32:58;;;;;;;;;13.60;11.20;;;;;18.78;47.84;101635.28;5011819;28;45472;-54
2022/05/28 09:35:26;;;;;;;;;10.80;8.40;;;;;18.77;47.71;101633.59;5015317;28;45432;-52
2022/05/28 09:37:56;;;;;;;;;10.80;9.40;;;;;18.72;47.59;101644.59;5016344;28;45441;-52
2022/05/28 09:40:40;;;;;;;;;14.80;11.60;;;;;18.71;47.37;101634.56;5031913;28;45343;-57
2022/05/28 09:43:08;;;;;;;;;12.00;10.80;;;;;18.77;47.80;101627.16;5029930;28;45626;-51
2022/05/28 09:45:37;;;;;;;;;11.80;10.00;;;;;18.88;46.73;101629.09;5016686;28;45528;-48
2022/05/28 09:48:02;;;;;;;;;9.40;9.00;;;;;18.71;46.39;101587.31;5015029;28;45819;-55
2022/05/28 09:50:30;;;;;;;;;14.00;10.00;;;;;18.75;45.94;101599.63;5012646;28;45729;-50
2022/05/28 09:55:53;;;;;;;;;14.60;10.20;;;;;19.01;45.72;101613.19;5036118;28;45537;-51
2022/05/28 09:58:20;;;;;;;;;7.20;7.20;;;;;19.16;45.96;101612.69;5031617;28;45488;-53
2022/05/28 10:00:45;;;;;;;;;7.40;7.40;;;;;19.19;45.19;101601.06;5015200;28;45471;-51
2022/05/28 10:05:55;;;;;;;;;9.00;9.00;;;;;19.16;44.91;101568.19;5015157;28;45240;-56
2022/05/28 10:08:29;;;;;;;;;8.75;8.00;;;;;19.30;44.62;101582.59;5014838;28;45265;-58
2022/05/28 10:10:55;;;;;;;;;9.00;9.00;;;;;19.34;44.07;101589.38;5015566;28;45441;-55
2022/05/28 10:13:24;;;;;;;;;9.60;8.60;;;;;19.33;44.71;101590.47;4997750;28;48492;-54
2022/05/28 10:15:53;;;;;;;;;7.80;7.80;;;;;19.38;44.55;101593.34;5015788;28;45310;-51
2022/05/28 10:18:38;;;;;;;;;11.80;7.40;;;;;19.54;43.87;101593.59;5031173;28;45522;-50
2022/05/28 10:21:15;;;;;;;;;9.80;7.80;;;;;19.77;43.28;101585.09;5015223;28;45887;-55
2022/05/28 10:23:43;;;;;;;;;6.80;6.80;;;;;19.84;43.18;101579.34;5013371;28;46253;-52
2022/05/28 10:26:22;;;;;;;;;11.20;9.80;;;;;19.85;43.26;101583.00;5014414;28;45409;-50
2022/05/28 10:28:49;;;;;;;;;9.60;8.20;;;;;19.92;43.20;101592.84;5015796;28;45361;-50
2022/05/28 10:31:37;;;;;;;;;8.40;8.20;;;;;20.00;42.98;101579.59;5014810;28;45378;-53
2022/05/28 10:34:03;;;;;;;;;9.80;8.20;;;;;20.05;43.31;101582.47;5010634;28;45346;-58
2022/05/28 10:36:31;;;;;;;;;8.80;7.20;;;;;19.90;42.07;101544.91;5013882;28;45405;-56
2022/05/28 10:39:13;;;;;;;;;8.80;7.60;;;;;20.01;42.26;101548.72;5016090;28;45705;-54
2022/05/28 10:41:46;;;;;;;;;6.20;6.00;;;;;20.02;42.20;101530.06;5014754;28;45288;-51
2022/05/28 10:44:19;;;;;;;;;7.40;5.80;;;;;20.17;42.41;101566.50;5030541;28;46239;-54
2022/05/28 10:47:07;;;;;;;;;10.20;6.00;;;;;20.02;42.25;101557.91;5015134;28;45348;-54
2022/05/28 10:49:47;;;;;;;;;5.80;4.40;;;;;19.82;42.15;101545.34;5015462;28;45388;-53
2022/05/28 10:52:21;;;;;;;;;7.80;7.00;;;;;19.89;41.45;101567.44;5016227;28;45417;-57
2022/05/28 10:55:09;;;;;;;;;3.80;3.20;;;;;19.92;41.36;101564.16;5015251;28;45344;-56
2022/05/28 10:57:45;;;;;;;;;3.40;3.40;;;;;19.22;40.57;101445.56;5014259;28;45474;-52
2022/05/28 11:00:19;;;;;;;;;6.00;3.60;;;;;19.93;40.79;101557.47;5015580;28;45233;-54
2022/05/28 11:03:04;;;;;;;;;6.40;6.40;;;;;19.96;41.19;101547.81;4997816;28;45571;-54
2022/05/28 11:05:42;;;;;;;;;5.40;4.80;;;;;20.08;39.96;101545.75;4998341;28;49130;-54
2022/05/28 11:08:29;;;;;;;;;6.60;4.00;;;;;20.13;39.82;101550.56;4998444;28;45597;-53
2022/05/28 11:11:34;;;;;;;;;5.40;5.40;;;;;20.23;40.89;101538.69;4983526;28;45582;-49
2022/05/28 11:14:02;;;;;;;;;6.40;5.40;;;;;20.41;40.39;101543.97;5020807;28;45532;-53
2022/05/28 11:16:38;;;;;;;;;3.80;3.80;;;;;20.61;40.70;101548.09;5030932;28;45753;-55
2022/05/28 11:19:28;;;;;;;;;3.80;3.80;;;;;20.80;39.28;101533.78;5030800;28;45756;-56
2022/05/28 11:22:24;;;;;;;;;4.80;4.00;;;;;20.92;38.47;101536.47;5031149;28;45563;-54
2022/05/28 11:24:54;;;;;;;;;6.20;5.40;;;;;20.47;37.88;101486.31;5051565;28;45612;-52
2022/05/28 11:27:32;;;;;;;;;8.60;6.80;;;;;20.65;39.04;101538.09;5030992;28;45696;-54
2022/05/28 11:30:00;;;;;;;;;4.60;4.60;;;;;20.48;39.03;101501.94;5030732;28;45771;-54
2022/05/28 11:32:28;;;;;;;;;6.20;4.80;;;;;20.27;38.70;101475.78;5026762;28;46072;-50
2022/05/28 11:34:54;;;;;;;;;6.60;5.40;;;;;20.47;38.20;101524.50;5025016;28;45545;-51
2022/05/28 11:37:32;;;;;;;;;5.60;3.60;;;;;20.44;37.83;101532.28;5061420;28;46797;-51
2022/05/28 11:40:01;;;;;;;;;4.00;2.00;;;;;20.41;37.03;101518.03;5030392;28;45778;-50